Time;durP1;ratioP1;P1;durP2;ratioP2;P2;SDS_P1;SDS_P2;PMS_P1;PMS_P2;Temp;Humidity;BMP_temperature;BMP_pressure;BME280_temperature;BME280_humidity;BME280_pressure;Samples;Min_cycle;Max_cycle;Signal;HPM_P1;HPM_P2
2022/04/21 05:00:16;;;;;;;12.10;11.20;;;8.20;97.20;;;;;;1741498;28;20175;-77
2022/04/21 05:01:08;;;;;;;13.50;12.30;;;8.30;97.20;;;;;;1741600;28;20207;-78
2022/04/21 05:02:01;;;;;;;13.38;12.32;;;8.30;97.20;;;;;;1741043;28;20205;-77
2022/04/21 05:02:52;;;;;;;13.57;12.15;;;8.30;97.20;;;;;;1741493;28;20199;-77
2022/04/21 05:03:43;;;;;;;11.90;10.90;;;8.30;97.20;;;;;;1741291;28;20263;-77
2022/04/21 05:04:34;;;;;;;12.63;11.50;;;8.30;97.20;;;;;;1741438;28;20635;-77
2022/04/21 05:05:26;;;;;;;12.23;11.20;;;8.40;97.20;;;;;;1741406;28;20203;-77
2022/04/21 05:06:17;;;;;;;12.90;11.90;;;8.40;97.20;;;;;;1741376;28;20477;-77
2022/04/21 05:07:08;;;;;;;12.80;11.80;;;8.40;97.20;;;;;;1741354;28;20195;-77
2022/04/21 05:08:02;;;;;;;12.52;11.52;;;8.40;97.20;;;;;;1741444;28;20665;-77
2022/04/21 05:08:55;;;;;;;13.35;12.10;;;8.40;97.20;;;;;;1741544;28;20366;-77
2022/04/21 05:09:47;;;;;;;12.52;11.43;;;8.40;97.20;;;;;;1741285;28;20207;-77
2022/04/21 05:10:38;;;;;;;13.38;11.88;;;8.40;97.20;;;;;;1741357;28;20254;-77
2022/04/21 05:11:30;;;;;;;13.13;11.77;;;8.40;97.20;;;;;;1741320;28;20207;-77
2022/04/21 05:12:21;;;;;;;12.38;11.38;;;8.40;97.20;;;;;;1741358;28;20997;-77
2022/04/21 05:13:13;;;;;;;13.23;12.13;;;8.50;97.20;;;;;;1741370;28;20246;-77
2022/04/21 05:14:04;;;;;;;13.02;11.82;;;8.50;97.20;;;;;;1741353;28;20720;-77
2022/04/21 05:14:56;;;;;;;12.05;11.05;;;8.50;97.20;;;;;;1741359;28;20232;-77
2022/04/21 05:15:48;;;;;;;12.95;11.85;;;8.60;97.20;;;;;;1741428;28;20203;-77
2022/04/21 05:16:40;;;;;;;13.32;12.13;;;8.60;97.20;;;;;;1741435;28;20229;-78
2022/04/21 05:17:31;;;;;;;12.88;11.65;;;8.60;97.20;;;;;;1741432;28;20294;-77
2022/04/21 05:18:24;;;;;;;13.43;12.32;;;8.60;97.20;;;;;;1740587;28;20192;-77
2022/04/21 05:19:16;;;;;;;13.10;12.10;;;8.60;97.20;;;;;;1741213;28;20207;-77
2022/04/21 05:20:10;;;;;;;14.02;12.73;;;8.60;97.20;;;;;;1741291;28;20199;-77
2022/04/21 05:21:01;;;;;;;14.48;13.20;;;8.60;97.20;;;;;;1741204;28;20207;-77
2022/04/21 05:21:53;;;;;;;13.55;12.38;;;8.70;97.20;;;;;;1741280;28;20230;-77
2022/04/21 05:22:47;;;;;;;12.65;11.45;;;8.70;97.20;;;;;;1741257;28;20210;-77
2022/04/21 05:23:40;;;;;;;14.07;12.73;;;8.70;97.20;;;;;;1741155;28;20210;-76
2022/04/21 05:24:32;;;;;;;14.70;12.50;;;8.70;97.20;;;;;;1741358;28;20234;-77
2022/04/21 05:25:30;;;;;;;13.70;12.38;;;8.80;97.20;;;;;;1741247;28;20199;-76
2022/04/21 05:26:21;;;;;;;12.82;11.65;;;8.80;97.20;;;;;;1741013;28;20292;-77
2022/04/21 05:27:14;;;;;;;14.15;12.95;;;8.80;97.20;;;;;;1740929;28;20203;-77
2022/04/21 05:28:06;;;;;;;13.65;12.45;;;8.90;97.20;;;;;;1740831;28;20203;-77
2022/04/21 05:28:59;;;;;;;12.95;11.77;;;8.90;97.20;;;;;;1741202;28;20202;-77
2022/04/21 05:31:02;;;;;;;13.40;12.27;;;9.00;97.20;;;;;;1741239;28;20270;-76
2022/04/21 05:31:55;;;;;;;14.18;13.00;;;9.00;97.20;;;;;;1741198;28;20242;-77
2022/04/21 05:32:51;;;;;;;15.40;13.77;;;9.00;97.20;;;;;;1741176;28;20191;-77
2022/04/21 05:33:43;;;;;;;15.38;13.90;;;9.10;97.20;;;;;;1741125;28;20329;-77
2022/04/21 05:34:35;;;;;;;14.15;12.88;;;9.10;97.20;;;;;;1740565;28;20821;-77
2022/04/21 05:35:27;;;;;;;14.98;13.57;;;9.10;97.20;;;;;;1741163;28;20289;-76
2022/04/21 05:36:20;;;;;;;14.65;13.45;;;9.20;97.20;;;;;;1741307;28;20199;-76
2022/04/21 05:37:12;;;;;;;14.90;13.43;;;9.20;97.20;;;;;;1748119;28;20618;-76
2022/04/21 05:38:04;;;;;;;15.40;13.93;;;9.20;97.20;;;;;;1747701;28;20201;-76
2022/04/21 05:38:56;;;;;;;15.02;13.52;;;9.30;97.20;;;;;;1744750;28;20206;-75
2022/04/21 05:39:47;;;;;;;16.65;14.98;;;9.30;97.20;;;;;;1737993;28;20203;-76
2022/04/21 05:40:39;;;;;;;15.10;13.80;;;9.40;97.20;;;;;;1740786;28;20313;-76
2022/04/21 05:41:31;;;;;;;15.75;14.13;;;9.40;97.20;;;;;;1734208;28;20192;-76
2022/04/21 05:42:23;;;;;;;19.58;14.93;;;9.50;97.20;;;;;;1736832;28;20199;-76
2022/04/21 05:43:18;;;;;;;15.18;13.60;;;9.50;97.20;;;;;;1740546;28;20230;-76
2022/04/21 05:44:11;;;;;;;16.15;14.40;;;9.50;97.20;;;;;;1741086;28;20203;-76
2022/04/21 05:45:02;;;;;;;17.33;14.88;;;9.60;97.20;;;;;;1741505;28;20198;-75
2022/04/21 05:45:54;;;;;;;16.05;14.65;;;9.60;97.20;;;;;;1741069;28;20616;-75
2022/04/21 05:46:47;;;;;;;15.70;14.35;;;9.60;97.20;;;;;;1741085;28;20199;-75
2022/04/21 05:47:41;;;;;;;16.38;14.90;;;9.70;97.20;;;;;;1740861;28;20210;-75
2022/04/21 05:48:32;;;;;;;15.52;14.20;;;9.70;97.20;;;;;;1739462;28;20202;-76
2022/04/21 05:49:25;;;;;;;16.98;15.30;;;9.70;97.20;;;;;;1740635;28;20727;-75
2022/04/21 05:50:16;;;;;;;16.23;14.80;;;9.80;97.20;;;;;;1740998;28;20199;-75
2022/04/21 05:51:10;;;;;;;15.73;14.43;;;9.80;97.20;;;;;;1741021;28;20199;-75
2022/04/21 05:52:02;;;;;;;18.55;16.02;;;9.90;97.20;;;;;;1739847;28;20203;-77
2022/04/21 05:52:58;;;;;;;17.10;15.65;;;9.90;97.20;;;;;;1735480;28;20199;-77
2022/04/21 05:53:51;;;;;;;17.15;15.43;;;9.90;97.20;;;;;;1735583;28;20556;-77
2022/04/21 05:54:42;;;;;;;16.23;14.70;;;10.00;97.20;;;;;;1736192;28;21530;-77
2022/04/21 05:55:35;;;;;;;16.20;14.82;;;10.00;97.20;;;;;;1736278;28;20195;-77
2022/04/21 05:56:26;;;;;;;17.77;15.98;;;10.00;97.20;;;;;;1736913;28;20199;-76
2022/04/21 05:57:18;;;;;;;16.02;14.52;;;10.10;97.20;;;;;;1734622;28;20211;-77
2022/04/21 05:58:09;;;;;;;16.20;14.60;;;10.10;97.20;;;;;;1736842;28;20192;-77
2022/04/21 05:59:01;;;;;;;16.50;15.20;;;10.10;97.20;;;;;;1736006;28;20231;-77
2022/04/21 05:59:52;;;;;;;16.75;15.20;;;10.20;97.20;;;;;;1737556;28;20203;-78
2022/04/21 06:00:44;;;;;;;16.83;15.33;;;10.20;97.20;;;;;;1736427;28;20313;-77
2022/04/21 06:01:35;;;;;;;17.48;15.80;;;10.20;97.20;;;;;;1734954;28;20208;-77
2022/04/21 06:02:28;;;;;;;17.87;16.13;;;10.20;97.20;;;;;;1736160;28;20226;-77
2022/04/21 06:03:21;;;;;;;17.98;16.27;;;10.30;97.20;;;;;;1736975;28;20451;-77
2022/04/21 06:04:12;;;;;;;16.90;15.50;;;10.30;97.20;;;;;;1735397;28;20191;-77
2022/04/21 06:05:04;;;;;;;17.83;16.13;;;10.30;97.20;;;;;;1735218;28;20196;-77
2022/04/21 06:05:56;;;;;;;16.88;15.13;;;10.30;97.20;;;;;;1736495;28;20248;-77
2022/04/21 06:06:47;;;;;;;18.27;16.52;;;10.40;97.20;;;;;;1735917;28;20207;-77
2022/04/21 06:07:39;;;;;;;16.27;14.87;;;10.40;97.20;;;;;;1735787;28;20210;-77
2022/04/21 06:08:29;;;;;;;17.55;15.95;;;10.40;97.20;;;;;;1736480;28;20366;-77
2022/04/21 06:09:21;;;;;;;17.73;15.93;;;10.40;97.20;;;;;;1736328;28;20286;-77
2022/04/21 06:10:12;;;;;;;16.55;14.95;;;10.50;97.20;;;;;;1735990;28;20487;-77
2022/04/21 06:11:04;;;;;;;16.90;15.17;;;10.50;97.20;;;;;;1735687;28;20274;-78
2022/04/21 06:11:55;;;;;;;17.20;15.80;;;10.50;97.20;;;;;;1736867;28;20227;-77
2022/04/21 06:12:46;;;;;;;17.17;15.57;;;10.50;97.20;;;;;;1735400;28;20203;-77
2022/04/21 06:13:37;;;;;;;17.10;15.65;;;10.60;97.20;;;;;;1736858;28;20224;-77
2022/04/21 06:14:29;;;;;;;16.07;14.70;;;10.60;97.20;;;;;;1735815;28;20226;-77
2022/04/21 06:15:19;;;;;;;16.77;15.18;;;10.60;97.20;;;;;;1739804;28;20196;-77
2022/04/21 06:16:11;;;;;;;17.80;15.93;;;10.60;97.20;;;;;;1738903;28;20183;-76
2022/04/21 06:17:02;;;;;;;17.45;15.85;;;10.60;97.20;;;;;;1738170;28;20247;-77
2022/04/21 06:17:55;;;;;;;17.80;16.23;;;10.70;97.20;;;;;;1737756;28;20274;-77
2022/04/21 06:18:47;;;;;;;19.27;15.50;;;10.70;97.20;;;;;;1737935;28;20329;-78
2022/04/21 06:19:38;;;;;;;16.52;15.13;;;10.70;97.20;;;;;;1736161;28;20203;-78
2022/04/21 06:20:30;;;;;;;16.73;15.27;;;10.70;97.20;;;;;;1736073;28;20205;-78
2022/04/21 06:21:21;;;;;;;16.98;15.38;;;10.70;97.20;;;;;;1735759;28;20195;-78
2022/04/21 06:22:12;;;;;;;17.02;15.60;;;10.80;97.20;;;;;;1736160;28;20226;-78
2022/04/21 06:23:04;;;;;;;16.77;15.30;;;10.80;97.20;;;;;;1735573;28;20228;-75
2022/04/21 06:23:55;;;;;;;16.48;15.18;;;10.80;97.20;;;;;;1736974;28;20671;-75
2022/04/21 06:24:47;;;;;;;17.10;15.70;;;10.80;97.20;;;;;;1734205;28;20204;-76
2022/04/21 06:25:38;;;;;;;16.73;15.32;;;10.90;97.20;;;;;;1734098;28;20230;-76
2022/04/21 06:26:30;;;;;;;16.45;14.88;;;10.90;97.20;;;;;;1734204;28;20203;-77
2022/04/21 06:27:20;;;;;;;17.20;15.70;;;10.90;97.20;;;;;;1733962;28;20203;-76
2022/04/21 06:28:13;;;;;;;17.03;15.70;;;10.90;97.20;;;;;;1733862;28;20203;-77
2022/04/21 06:29:05;;;;;;;16.92;15.52;;;11.00;97.20;;;;;;1737592;28;20659;-76
2022/04/21 06:29:56;;;;;;;16.92;15.23;;;11.00;97.20;;;;;;1747805;28;20285;-76
2022/04/21 06:30:47;;;;;;;16.50;15.20;;;11.00;97.20;;;;;;1747746;28;20656;-76
2022/04/21 06:31:39;;;;;;;17.50;15.80;;;11.10;97.20;;;;;;1747808;28;20217;-76
2022/04/21 06:32:30;;;;;;;15.85;14.55;;;11.10;97.20;;;;;;1747760;28;20494;-76
2022/04/21 06:33:23;;;;;;;15.97;14.80;;;11.10;97.20;;;;;;1747830;28;20203;-76
2022/04/21 06:34:13;;;;;;;16.80;15.50;;;11.10;97.20;;;;;;1737403;28;20199;-76
2022/04/21 06:35:06;;;;;;;16.60;15.20;;;11.20;97.20;;;;;;1734621;28;20826;-76
2022/04/21 06:35:57;;;;;;;16.10;14.90;;;11.20;97.20;;;;;;1737554;28;20208;-76
2022/04/21 06:36:49;;;;;;;16.80;15.20;;;11.20;97.20;;;;;;1738930;28;20244;-76
2022/04/21 06:37:40;;;;;;;16.63;14.55;;;11.20;97.20;;;;;;1740760;28;20441;-76
2022/04/21 06:38:31;;;;;;;17.70;16.10;;;11.30;97.20;;;;;;1740526;28;20191;-76
2022/04/21 06:39:22;;;;;;;16.63;15.13;;;11.30;97.20;;;;;;1740773;28;20210;-76
2022/04/21 06:40:14;;;;;;;16.40;14.90;;;11.30;97.20;;;;;;1740931;28;20209;-76
2022/04/21 06:41:05;;;;;;;16.20;14.80;;;11.30;97.20;;;;;;1740565;28;20199;-76
2022/04/21 06:41:56;;;;;;;16.23;14.83;;;11.30;97.20;;;;;;1734514;28;20203;-77
2022/04/21 06:42:47;;;;;;;16.67;15.27;;;11.30;97.20;;;;;;1734512;28;20196;-77
2022/04/21 06:48:16;;;;;;;16.42;15.02;;;11.40;97.20;;;;;;1734336;28;20199;-76
2022/04/21 06:49:08;;;;;;;15.82;14.32;;;11.50;97.20;;;;;;1734426;28;20571;-77
2022/04/21 06:50:00;;;;;;;15.30;13.90;;;11.50;97.20;;;;;;1734281;28;20207;-77
2022/04/21 06:50:51;;;;;;;16.65;15.20;;;11.50;97.20;;;;;;1734397;28;20220;-77
2022/04/21 06:51:44;;;;;;;16.43;14.93;;;11.60;97.20;;;;;;1734252;28;20196;-77
2022/04/21 06:52:34;;;;;;;16.75;15.20;;;11.60;97.20;;;;;;1739777;28;20202;-76
2022/04/21 06:53:26;;;;;;;16.80;15.07;;;11.70;97.20;;;;;;1740981;28;20290;-76
2022/04/21 06:54:17;;;;;;;17.23;15.73;;;11.70;97.20;;;;;;1741223;28;20670;-77
2022/04/21 06:55:09;;;;;;;17.97;16.27;;;11.70;97.20;;;;;;1741106;28;20566;-76
2022/04/21 06:56:00;;;;;;;16.73;15.23;;;11.80;97.20;;;;;;1740893;28;20230;-76
2022/04/21 06:56:51;;;;;;;17.20;15.60;;;11.80;97.20;;;;;;1741185;28;20205;-76
2022/04/21 06:57:42;;;;;;;15.30;14.10;;;11.80;97.20;;;;;;1741119;28;20282;-76
2022/04/21 06:58:34;;;;;;;16.87;15.17;;;11.90;97.20;;;;;;1740705;28;20203;-76
2022/04/21 06:59:25;;;;;;;16.42;15.02;;;11.90;97.20;;;;;;1740052;28;20332;-77
2022/04/21 07:00:17;;;;;;;16.13;14.73;;;11.90;97.20;;;;;;1741317;28;20222;-77
2022/04/21 07:01:08;;;;;;;15.10;13.70;;;12.00;97.20;;;;;;1741972;28;20705;-77
2022/04/21 07:01:59;;;;;;;16.07;14.67;;;12.00;97.20;;;;;;1742479;28;20206;-77
2022/04/21 07:02:51;;;;;;;16.63;15.13;;;12.00;97.20;;;;;;1742713;28;20207;-77
2022/04/21 07:03:43;;;;;;;16.20;14.70;;;12.00;97.20;;;;;;1742519;28;20199;-77
2022/04/21 07:04:35;;;;;;;14.90;13.70;;;12.10;97.20;;;;;;1742639;28;20278;-78
2022/04/21 07:05:28;;;;;;;15.38;14.07;;;12.20;97.20;;;;;;1743511;28;20210;-77
2022/04/21 07:06:19;;;;;;;15.88;14.48;;;12.20;97.20;;;;;;1743254;28;20203;-77
2022/04/21 07:07:10;;;;;;;17.33;15.60;;;12.30;97.20;;;;;;1742718;28;20214;-77
2022/04/21 07:08:01;;;;;;;15.85;14.45;;;12.30;97.20;;;;;;1742244;28;20529;-76
2022/04/21 07:08:53;;;;;;;15.77;14.23;;;12.30;97.20;;;;;;1740995;28;20195;-77
2022/04/21 07:09:44;;;;;;;15.82;14.45;;;12.40;97.20;;;;;;1741073;28;20692;-77
2022/04/21 07:10:36;;;;;;;16.50;15.03;;;12.40;97.20;;;;;;1742137;28;20703;-76
2022/04/21 07:11:26;;;;;;;17.83;15.68;;;12.50;97.20;;;;;;1742357;28;20210;-77
2022/04/21 07:12:18;;;;;;;15.37;14.00;;;12.50;97.20;;;;;;1742378;28;20199;-77
2022/04/21 07:13:09;;;;;;;16.17;14.77;;;12.60;97.20;;;;;;1742475;28;20198;-77
2022/04/21 07:14:01;;;;;;;17.25;15.75;;;12.60;97.20;;;;;;1742658;28;20203;-76
2022/04/21 07:14:52;;;;;;;15.93;14.63;;;12.60;97.20;;;;;;1742887;28;20254;-78
2022/04/21 07:15:43;;;;;;;16.20;14.60;;;12.70;97.20;;;;;;1742594;28;20210;-76
2022/04/21 07:16:34;;;;;;;15.88;14.50;;;12.70;97.20;;;;;;1739579;28;20225;-77
2022/04/21 07:17:26;;;;;;;16.20;14.80;;;12.70;97.20;;;;;;1742826;28;20203;-78
2022/04/21 07:18:18;;;;;;;15.93;14.40;;;12.80;97.20;;;;;;1746309;28;20544;-78
2022/04/21 07:19:09;;;;;;;16.30;15.00;;;12.80;97.20;;;;;;1749001;28;20202;-77
2022/04/21 07:20:03;;;;;;;17.63;16.23;;;12.80;97.20;;;;;;1745166;28;20206;-77
2022/04/21 07:20:54;;;;;;;16.80;14.75;;;12.80;97.20;;;;;;1742361;28;20692;-78
2022/04/21 07:21:45;;;;;;;16.35;14.85;;;12.90;97.20;;;;;;1744994;28;20222;-78
2022/04/21 07:22:37;;;;;;;16.37;14.97;;;12.90;97.20;;;;;;1744527;28;20203;-76
2022/04/21 07:23:28;;;;;;;16.52;15.07;;;12.90;97.20;;;;;;1741992;28;20239;-77
2022/04/21 07:24:19;;;;;;;16.23;14.70;;;13.00;97.20;;;;;;1742050;28;20199;-77
2022/04/21 07:25:10;;;;;;;17.10;15.60;;;13.00;97.20;;;;;;1742063;28;20199;-77
2022/04/21 07:26:02;;;;;;;17.17;15.70;;;13.10;97.20;;;;;;1742045;28;20210;-77
2022/04/21 07:26:53;;;;;;;17.60;15.60;;;13.10;97.20;;;;;;1741946;28;20203;-77
2022/04/21 07:27:44;;;;;;;17.33;15.70;;;13.10;97.20;;;;;;1742011;28;20662;-77
2022/04/21 07:28:35;;;;;;;15.75;14.15;;;13.20;97.20;;;;;;1742193;28;20218;-77
2022/04/21 07:29:27;;;;;;;16.20;14.67;;;13.20;97.20;;;;;;1742546;28;20209;-77
2022/04/21 07:30:18;;;;;;;16.33;14.90;;;13.30;97.20;;;;;;1742512;28;20254;-77
2022/04/21 07:31:09;;;;;;;16.57;15.17;;;13.30;97.20;;;;;;1744193;28;20195;-78
2022/04/21 07:32:00;;;;;;;15.43;14.13;;;13.30;97.20;;;;;;1743244;28;20734;-77
2022/04/21 07:32:52;;;;;;;16.37;14.97;;;13.40;97.20;;;;;;1744470;28;20263;-76
2022/04/21 07:33:43;;;;;;;15.45;14.05;;;13.40;97.20;;;;;;1743673;28;20203;-77
2022/04/21 07:34:35;;;;;;;16.10;14.77;;;13.40;97.20;;;;;;1746383;28;20190;-77
2022/04/21 07:35:29;;;;;;;15.25;13.90;;;13.50;97.20;;;;;;1748909;28;20651;-77
2022/04/21 07:36:21;;;;;;;15.73;14.27;;;13.50;97.20;;;;;;1749099;28;20203;-77
2022/04/21 07:37:11;;;;;;;16.83;15.43;;;13.60;97.20;;;;;;1748944;28;20574;-76
2022/04/21 07:38:04;;;;;;;15.90;14.60;;;13.60;97.20;;;;;;1748490;28;20671;-77
2022/04/21 07:38:55;;;;;;;15.02;13.63;;;13.70;97.20;;;;;;1748779;28;20202;-77
2022/04/21 07:39:47;;;;;;;16.90;15.40;;;13.70;97.20;;;;;;1748697;28;20218;-76
2022/04/21 07:40:38;;;;;;;17.00;15.35;;;13.70;97.20;;;;;;1748675;28;20712;-77
2022/04/21 07:41:30;;;;;;;15.60;14.20;;;13.80;97.20;;;;;;1749133;28;20264;-78
2022/04/21 07:42:22;;;;;;;15.73;14.43;;;13.80;97.20;;;;;;1752764;28;20661;-77
2022/04/21 07:43:14;;;;;;;16.75;15.35;;;13.90;97.20;;;;;;1754453;28;20202;-77
2022/04/21 07:44:05;;;;;;;16.40;14.95;;;14.00;97.20;;;;;;1754815;28;20214;-77
2022/04/21 07:44:58;;;;;;;15.40;14.00;;;14.00;97.20;;;;;;1753515;28;20285;-77
2022/04/21 07:45:49;;;;;;;16.60;15.20;;;14.10;97.20;;;;;;1753839;28;20202;-77
2022/04/21 07:46:41;;;;;;;15.90;14.60;;;14.10;97.20;;;;;;1750847;28;20197;-77
2022/04/21 07:47:32;;;;;;;17.42;15.90;;;14.20;97.20;;;;;;1749412;28;20443;-78
2022/04/21 07:49:44;;;;;;;17.90;16.30;;;14.20;97.20;;;;;;1749232;28;20212;-77
2022/04/21 07:49:46;;;;;;;16.30;14.90;;;14.30;97.20;;;;;;1749171;28;20278;-79
2022/04/21 07:50:39;;;;;;;18.70;16.58;;;14.30;97.20;;;;;;1750050;28;20211;-80
2022/04/21 07:51:30;;;;;;;15.98;14.57;;;14.40;97.20;;;;;;1743286;28;20191;-77
2022/04/21 07:53:32;;;;;;;15.80;14.23;;;14.50;97.20;;;;;;1737795;28;20206;-77
2022/04/21 07:54:23;;;;;;;16.60;15.10;;;14.60;97.20;;;;;;1736721;28;20230;-77
2022/04/21 07:55:17;;;;;;;16.67;15.10;;;14.60;97.20;;;;;;1736752;28;20227;-77
2022/04/21 07:56:08;;;;;;;14.98;13.65;;;14.70;97.20;;;;;;1735864;28;20208;-77
2022/04/21 07:56:59;;;;;;;16.13;14.53;;;14.80;97.20;;;;;;1736509;28;20720;-78
2022/04/21 07:57:52;;;;;;;15.35;14.00;;;14.80;97.20;;;;;;1736106;28;20243;-77
2022/04/21 07:58:44;;;;;;;14.98;13.55;;;14.90;97.20;;;;;;1737869;28;20199;-77
2022/04/21 07:59:35;;;;;;;14.73;13.40;;;14.90;97.20;;;;;;1738321;28;20376;-77
2022/04/21 08:00:27;;;;;;;14.60;13.40;;;15.00;97.20;;;;;;1736955;28;20289;-77
2022/04/21 08:01:18;;;;;;;13.10;12.10;;;15.00;97.20;;;;;;1737266;28;20198;-77
2022/04/21 08:02:10;;;;;;;14.70;13.40;;;15.10;97.20;;;;;;1737367;28;20192;-78
2022/04/21 08:03:03;;;;;;;15.65;14.23;;;15.10;97.20;;;;;;1736479;28;20655;-77
2022/04/21 08:03:54;;;;;;;14.73;13.52;;;15.10;97.20;;;;;;1736872;28;20234;-78
2022/04/21 08:04:47;;;;;;;15.20;13.80;;;15.20;97.20;;;;;;1736977;28;20199;-77
2022/04/21 08:05:41;;;;;;;15.27;13.85;;;15.20;97.20;;;;;;1737546;28;20224;-77
2022/04/21 08:06:31;;;;;;;14.75;13.50;;;15.20;97.20;;;;;;1736031;28;20207;-77
2022/04/21 08:07:23;;;;;;;14.50;13.07;;;15.20;97.20;;;;;;1736872;28;20226;-78
2022/04/21 08:08:15;;;;;;;13.80;12.60;;;15.30;97.20;;;;;;1736381;28;20195;-78
2022/04/21 08:09:06;;;;;;;13.90;12.60;;;15.30;97.20;;;;;;1735725;28;20276;-77
2022/04/21 08:09:58;;;;;;;13.80;12.60;;;15.30;97.20;;;;;;1737228;28;20191;-77
2022/04/21 08:10:50;;;;;;;14.20;13.10;;;15.30;97.20;;;;;;1736477;28;20355;-78
2022/04/21 08:11:41;;;;;;;14.10;12.88;;;15.40;97.20;;;;;;1737396;28;20236;-78
2022/04/21 08:12:41;;;;;;;14.20;12.80;;;15.50;97.20;;;;;;1737412;28;20191;-77
2022/04/21 08:13:31;;;;;;;13.63;12.43;;;15.50;97.20;;;;;;1736089;28;20282;-78
2022/04/21 08:14:25;;;;;;;13.60;12.13;;;15.60;97.20;;;;;;1736537;28;20196;-77
2022/04/21 08:15:23;;;;;;;13.50;12.20;;;15.60;97.20;;;;;;1737438;28;20750;-77
2022/04/21 08:16:15;;;;;;;13.60;12.40;;;15.70;97.20;;;;;;1737348;28;20674;-78
2022/04/21 08:17:06;;;;;;;14.35;13.05;;;15.80;97.20;;;;;;1737433;28;20206;-78
2022/04/21 08:18:00;;;;;;;13.93;12.73;;;15.80;97.20;;;;;;1735090;28;20210;-77
2022/04/21 08:18:52;;;;;;;13.85;12.65;;;15.90;97.20;;;;;;1737627;28;20584;-77
2022/04/21 08:19:44;;;;;;;14.68;13.27;;;15.90;97.20;;;;;;1737793;28;20238;-77
2022/04/21 08:20:35;;;;;;;13.82;12.65;;;16.00;97.20;;;;;;1737425;28;20224;-77
2022/04/21 08:21:32;;;;;;;14.73;13.43;;;16.00;96.50;;;;;;1738593;28;20196;-78
2022/04/21 08:22:28;;;;;;;14.30;13.10;;;16.00;96.00;;;;;;1737306;28;20659;-77
2022/04/21 08:23:20;;;;;;;13.95;12.85;;;16.00;96.40;;;;;;1736357;28;20196;-78
2022/04/21 08:32:41;;;;;;;14.57;13.27;;;16.60;94.50;;;;;;1735927;28;20226;-77
2022/04/21 08:33:38;;;;;;;14.15;12.75;;;16.70;94.60;;;;;;1736359;28;20214;-77
2022/04/21 08:34:30;;;;;;;14.68;13.48;;;16.80;94.60;;;;;;1737629;28;20200;-77
2022/04/21 08:35:22;;;;;;;14.40;13.20;;;16.80;94.90;;;;;;1736546;28;20319;-77
2022/04/21 08:36:13;;;;;;;14.27;12.88;;;16.90;94.40;;;;;;1737464;28;21816;-77
2022/04/21 08:37:07;;;;;;;15.25;14.00;;;16.90;94.20;;;;;;1735863;28;20620;-77
2022/04/21 08:37:57;;;;;;;14.10;12.70;;;16.90;94.10;;;;;;1736591;28;20199;-78
2022/04/21 08:38:50;;;;;;;13.90;12.60;;;17.00;94.40;;;;;;1737769;28;20195;-77
2022/04/21 08:39:47;;;;;;;14.75;12.95;;;17.00;94.90;;;;;;1736461;28;20337;-77
2022/04/21 08:40:42;;;;;;;14.40;13.10;;;17.10;94.90;;;;;;1736723;28;20211;-77
2022/04/21 08:41:36;;;;;;;13.32;12.13;;;17.20;94.30;;;;;;1736522;28;20670;-77
2022/04/21 08:42:30;;;;;;;13.52;12.23;;;17.30;94.30;;;;;;1736393;28;20610;-77
2022/04/21 08:43:23;;;;;;;13.27;12.18;;;17.40;94.40;;;;;;1736675;28;20287;-77
2022/04/21 08:44:17;;;;;;;14.07;12.88;;;17.50;94.10;;;;;;1736284;28;20242;-77
2022/04/21 08:45:11;;;;;;;13.90;12.70;;;17.60;93.60;;;;;;1738764;28;20216;-77
2022/04/21 08:46:05;;;;;;;13.75;12.55;;;17.60;93.50;;;;;;1739703;28;20192;-77
2022/04/21 08:47:05;;;;;;;14.10;12.80;;;17.70;93.20;;;;;;1739090;28;20207;-77
2022/04/21 08:48:02;;;;;;;12.85;11.52;;;17.80;92.90;;;;;;1738620;28;20191;-78
2022/04/21 08:48:55;;;;;;;12.63;11.50;;;17.80;92.30;;;;;;1736529;28;20286;-78
2022/04/21 08:49:48;;;;;;;12.97;11.83;;;17.90;91.90;;;;;;1736269;28;20199;-78
2022/04/21 08:50:40;;;;;;;12.57;11.25;;;17.90;91.90;;;;;;1736864;28;20462;-78
2022/04/21 08:51:33;;;;;;;13.30;12.10;;;17.90;92.10;;;;;;1736988;28;20213;-78
2022/04/21 08:52:28;;;;;;;13.95;12.38;;;18.00;92.00;;;;;;1735940;28;20195;-77
2022/04/21 08:53:21;;;;;;;13.38;12.20;;;18.10;92.00;;;;;;1735667;28;20202;-78
2022/04/21 08:54:15;;;;;;;12.90;11.70;;;18.10;92.10;;;;;;1736754;28;20243;-78
2022/04/21 08:55:10;;;;;;;11.98;10.85;;;18.30;92.20;;;;;;1736064;28;20208;-77
2022/04/21 08:56:03;;;;;;;13.05;11.95;;;18.30;92.10;;;;;;1736382;28;20640;-78
2022/04/21 08:57:00;;;;;;;12.20;11.10;;;18.40;91.80;;;;;;1736968;28;20678;-78
2022/04/21 08:57:53;;;;;;;13.10;12.02;;;18.50;92.10;;;;;;1738237;28;20578;-77
2022/04/21 08:58:44;;;;;;;11.90;10.85;;;18.60;92.20;;;;;;1734565;28;20207;-77
2022/04/21 08:59:38;;;;;;;12.50;11.30;;;18.70;92.40;;;;;;1736662;28;20290;-78
2022/04/21 09:00:34;;;;;;;12.85;11.75;;;18.80;92.90;;;;;;1736176;28;20222;-77
2022/04/21 09:01:27;;;;;;;12.43;11.43;;;18.80;91.90;;;;;;1735045;28;20194;-78
2022/04/21 09:02:20;;;;;;;12.93;11.63;;;18.90;90.60;;;;;;1734956;28;20215;-78
2022/04/21 09:03:22;;;;;;;13.50;12.38;;;19.00;90.50;;;;;;1734878;28;20195;-78
2022/04/21 09:04:14;;;;;;;11.75;10.75;;;19.00;90.40;;;;;;1734922;28;20211;-78
2022/04/21 09:05:07;;;;;;;14.57;11.80;;;19.10;90.10;;;;;;1734726;28;20196;-77
2022/04/21 09:05:58;;;;;;;13.05;11.68;;;19.20;90.20;;;;;;1734682;28;20259;-78
2022/04/21 09:06:51;;;;;;;12.37;11.27;;;19.20;90.40;;;;;;1734840;28;20196;-78
2022/04/21 09:07:53;;;;;;;13.88;12.68;;;19.30;90.20;;;;;;1734951;28;20220;-79
2022/04/21 09:08:44;;;;;;;11.57;10.38;;;19.40;89.50;;;;;;1737052;28;20219;-77
2022/04/21 09:09:37;;;;;;;12.40;11.30;;;19.40;89.30;;;;;;1741380;28;20206;-77
2022/04/21 09:10:29;;;;;;;11.57;10.57;;;19.40;89.10;;;;;;1741836;28;20210;-78
2022/04/21 09:11:22;;;;;;;11.50;10.50;;;19.50;88.90;;;;;;1741809;28;20203;-77
2022/04/21 09:12:19;;;;;;;11.98;10.75;;;19.60;89.00;;;;;;1742040;28;20235;-78
2022/04/21 09:13:11;;;;;;;13.23;12.13;;;19.60;89.30;;;;;;1741803;28;20607;-77
2022/04/21 09:14:01;;;;;;;12.82;11.73;;;19.70;89.20;;;;;;1741798;28;20207;-77
2022/04/21 09:14:53;;;;;;;13.17;12.00;;;19.80;88.70;;;;;;1741638;28;20209;-78
2022/04/21 09:15:45;;;;;;;13.50;12.30;;;19.80;88.20;;;;;;1741383;28;20223;-78
2022/04/21 09:16:36;;;;;;;12.90;11.65;;;19.90;88.30;;;;;;1741887;28;20203;-78
2022/04/21 09:17:28;;;;;;;12.68;11.57;;;20.00;87.90;;;;;;1741704;28;20611;-78
2022/04/21 09:18:19;;;;;;;11.43;10.43;;;20.10;87.60;;;;;;1741298;28;20407;-77
2022/04/21 09:19:10;;;;;;;12.50;11.30;;;20.10;87.50;;;;;;1741595;28;20192;-77
2022/04/21 09:20:03;;;;;;;12.05;11.02;;;20.20;87.50;;;;;;1741741;28;20207;-78
2022/04/21 09:20:54;;;;;;;12.45;11.05;;;20.20;87.70;;;;;;1741942;28;20247;-77
2022/04/21 09:21:45;;;;;;;11.50;10.50;;;20.30;87.30;;;;;;1741724;28;20210;-77
2022/04/21 09:22:41;;;;;;;10.80;9.90;;;20.40;86.30;;;;;;1741769;28;20197;-78
2022/04/21 09:23:34;;;;;;;13.18;12.07;;;20.40;85.90;;;;;;1741120;28;20268;-77
2022/04/21 09:24:27;;;;;;;11.25;10.23;;;20.40;85.30;;;;;;1740947;28;20221;-78
2022/04/21 09:25:18;;;;;;;11.55;10.45;;;20.30;85.00;;;;;;1734774;28;20695;-78
2022/04/21 09:26:12;;;;;;;12.10;11.20;;;20.30;85.00;;;;;;1734914;28;20660;-78
2022/04/21 09:27:05;;;;;;;12.13;11.15;;;20.10;85.10;;;;;;1734994;28;20961;-77
2022/04/21 09:27:58;;;;;;;11.75;10.75;;;20.00;85.10;;;;;;1734953;28;20200;-78
2022/04/21 09:28:53;;;;;;;12.13;10.88;;;19.90;85.30;;;;;;1734615;28;20232;-77
2022/04/21 09:29:45;;;;;;;11.38;10.57;;;19.90;85.10;;;;;;1734674;28;20224;-77
2022/04/21 09:30:38;;;;;;;11.32;10.52;;;19.90;85.20;;;;;;1734858;28;20220;-78
2022/04/21 09:31:29;;;;;;;12.57;11.48;;;19.90;85.30;;;;;;1734846;28;20205;-77
2022/04/21 09:32:21;;;;;;;12.02;11.13;;;19.90;85.20;;;;;;1735041;28;20726;-77
2022/04/21 09:33:12;;;;;;;12.05;11.05;;;19.90;85.10;;;;;;1739709;28;20222;-77
2022/04/21 09:34:05;;;;;;;12.93;11.80;;;20.00;85.60;;;;;;1741823;28;20210;-78
2022/04/21 09:34:58;;;;;;;13.27;11.98;;;20.00;85.80;;;;;;1741769;28;20199;-77
2022/04/21 09:35:49;;;;;;;12.13;11.02;;;20.00;85.90;;;;;;1741935;28;20226;-77
2022/04/21 09:36:41;;;;;;;11.15;10.25;;;20.10;86.10;;;;;;1741712;28;20227;-78
2022/04/21 09:37:33;;;;;;;10.90;10.10;;;20.30;86.10;;;;;;1741609;28;20210;-78
2022/04/21 09:38:24;;;;;;;10.80;9.80;;;20.40;86.30;;;;;;1741534;28;20221;-78
2022/04/21 09:39:16;;;;;;;12.82;11.68;;;20.50;85.80;;;;;;1741555;28;20207;-77
2022/04/21 09:40:11;;;;;;;11.35;10.40;;;20.70;85.20;;;;;;1741717;28;20207;-78
2022/04/21 09:41:07;;;;;;;11.43;10.43;;;20.80;84.80;;;;;;1738992;28;20245;-77